Perkiomenville, Pennsylvania
Current Conditions -  °F | °C
As of 7:54 PM on Thursday 25 Dec 2014 (Local Time) from KPTW Reporting Station
Scattered Clouds Scattered Clouds  
Wind Chill: 39°   Ceiling: Unl
Heat Index: 43°   Visibility: 10mi
Dew Point: 30°   Wind: 7mph
Humidity: 60%   Direction: 290°WNW
Pressure: 30.11"   Gusts: NA
Location:  40.32°N, 75.48°W
Report Text: KPTW 260054Z AUTO 29006KT 10SM SCT040 06/M01 A3011 RMK AO2 SLP195 T00611011
Loading
Personal Weather Stations






























Interactive Weather Map New forecast layout! Learn more

10-Day Weather Forecast

Advertisements
Track Severe Weather on mobile